createdAt,value
2018-06-25T00:02:02.077Z,99.90
2018-06-25T00:04:30.172Z,99.90
2018-06-25T00:06:58.331Z,99.90
2018-06-25T00:09:26.469Z,99.90
2018-06-25T00:11:54.590Z,99.90
2018-06-25T00:14:22.703Z,99.90
2018-06-25T00:16:50.831Z,99.90
2018-06-25T00:19:18.993Z,99.90
2018-06-25T00:21:47.154Z,99.90
2018-06-25T00:24:15.266Z,99.90
2018-06-25T00:26:43.394Z,99.90
2018-06-25T00:29:11.527Z,99.90
2018-06-25T00:31:39.663Z,99.90
2018-06-25T00:34:07.835Z,99.90
2018-06-25T00:36:35.963Z,99.90
2018-06-25T00:39:05.958Z,99.90
2018-06-25T00:41:34.099Z,99.90
2018-06-25T00:44:02.238Z,99.90
2018-06-25T00:46:30.371Z,99.90
2018-06-25T00:48:58.516Z,99.90
2018-06-25T00:51:26.642Z,99.90
2018-06-25T00:53:54.763Z,99.90
2018-06-25T00:56:29.501Z,99.90
2018-06-25T00:59:09.146Z,99.90
2018-06-25T01:01:37.266Z,99.90
2018-06-25T01:04:05.397Z,99.90
2018-06-25T01:06:33.524Z,99.90
2018-06-25T01:09:01.656Z,99.90
2018-06-25T01:11:29.804Z,99.90
2018-06-25T01:13:57.930Z,99.90
2018-06-25T01:16:26.055Z,99.90
2018-06-25T01:18:54.178Z,99.90
2018-06-25T01:21:22.331Z,99.90
2018-06-25T01:23:50.455Z,99.90
2018-06-25T01:26:18.586Z,99.90
2018-06-25T01:28:46.720Z,99.90
2018-06-25T01:31:14.892Z,99.90
2018-06-25T01:33:42.993Z,99.90
2018-06-25T01:36:11.143Z,99.90
2018-06-25T01:38:39.270Z,99.90
2018-06-25T01:41:07.403Z,99.90
2018-06-25T01:43:35.546Z,99.90
2018-06-25T01:46:03.671Z,99.90
2018-06-25T01:48:31.808Z,99.90
2018-06-25T01:50:59.979Z,99.90
2018-06-25T01:53:28.110Z,99.90
2018-06-25T01:55:56.242Z,99.90
2018-06-25T01:58:24.371Z,99.90
2018-06-25T02:00:52.482Z,99.90
2018-06-25T02:03:20.602Z,99.90
2018-06-25T02:08:16.684Z,99.90
2018-06-25T02:10:44.817Z,99.90
2018-06-25T02:13:12.958Z,99.90
2018-06-25T02:15:41.068Z,99.90
2018-06-25T02:18:09.207Z,99.90
2018-06-25T02:20:37.345Z,99.90
2018-06-25T02:23:05.731Z,99.90
2018-06-25T02:25:33.843Z,99.90
2018-06-25T02:28:02.006Z,99.90
2018-06-25T02:30:30.144Z,99.90
2018-06-25T02:32:58.262Z,99.90
2018-06-25T02:35:26.390Z,99.90
2018-06-25T02:37:54.568Z,99.90
2018-06-25T02:40:22.674Z,99.90
2018-06-25T02:42:50.814Z,99.90
2018-06-25T02:45:19.005Z,99.90
2018-06-25T02:47:47.157Z,99.90
2018-06-25T02:50:15.262Z,99.90
2018-06-25T02:52:43.388Z,99.90
2018-06-25T02:55:11.511Z,99.90
2018-06-25T02:57:39.686Z,99.90
2018-06-25T03:00:07.823Z,99.90
2018-06-25T03:02:35.934Z,99.90
2018-06-25T03:05:04.090Z,99.90
2018-06-25T03:07:32.196Z,99.90
2018-06-25T03:10:00.310Z,99.90
2018-06-25T03:12:28.429Z,99.90
2018-06-25T03:14:56.560Z,99.90
2018-06-25T03:17:24.675Z,99.90
2018-06-25T03:19:52.809Z,99.90
2018-06-25T03:22:20.927Z,99.90
2018-06-25T03:24:49.055Z,99.90
2018-06-25T03:27:17.161Z,99.90
2018-06-25T03:29:45.281Z,99.90
2018-06-25T03:32:13.414Z,99.90
2018-06-25T03:34:41.536Z,99.90
2018-06-25T03:37:09.651Z,99.90
2018-06-25T03:39:37.782Z,99.90
2018-06-25T03:42:05.962Z,99.90
2018-06-25T03:44:34.127Z,99.90
2018-06-25T03:47:02.245Z,99.90
2018-06-25T03:49:30.373Z,99.90
2018-06-25T03:51:58.493Z,99.90
2018-06-25T03:54:26.657Z,99.90
2018-06-25T03:56:54.800Z,99.90
2018-06-25T03:59:22.918Z,99.90
2018-06-25T04:01:51.259Z,99.90
2018-06-25T04:04:19.387Z,99.90
2018-06-25T04:06:47.503Z,99.90
2018-06-25T04:09:15.618Z,99.90
2018-06-25T04:11:43.739Z,99.90
2018-06-25T04:14:11.843Z,99.90
2018-06-25T04:16:39.967Z,99.90
2018-06-25T04:19:08.073Z,99.90
2018-06-25T04:21:37.294Z,99.90
2018-06-25T04:24:05.441Z,99.90
2018-06-25T04:26:33.848Z,99.90
2018-06-25T04:29:02.539Z,99.90
2018-06-25T04:31:31.015Z,99.90
2018-06-25T04:33:59.495Z,99.90
2018-06-25T04:36:28.699Z,99.90
2018-06-25T04:38:56.877Z,99.90
2018-06-25T04:41:24.998Z,99.90
2018-06-25T04:43:53.116Z,99.90
2018-06-25T04:46:21.259Z,99.90
2018-06-25T04:48:49.383Z,99.90
2018-06-25T04:53:45.437Z,99.90
2018-06-25T04:56:13.550Z,99.90
2018-06-25T04:58:41.658Z,99.90
2018-06-25T05:01:09.854Z,99.90
2018-06-25T05:03:38.182Z,99.90
2018-06-25T05:06:06.301Z,99.90
2018-06-25T05:08:34.486Z,99.90
2018-06-25T05:11:02.598Z,99.90
2018-06-25T05:13:30.718Z,99.90
2018-06-25T05:15:58.826Z,99.90
2018-06-25T05:18:26.955Z,99.90
2018-06-25T05:23:22.963Z,99.90
2018-06-25T05:25:51.098Z,99.90
2018-06-25T05:28:19.224Z,99.90
2018-06-25T05:30:47.333Z,99.90
2018-06-25T05:33:15.455Z,99.90
2018-06-25T05:35:43.586Z,99.90
2018-06-25T05:38:11.715Z,99.90
2018-06-25T05:40:40.903Z,99.90
2018-06-25T05:43:09.030Z,99.90
2018-06-25T05:45:37.171Z,99.90
2018-06-25T05:48:05.307Z,99.90
2018-06-25T05:50:33.422Z,99.90
2018-06-25T05:53:01.566Z,99.90
2018-06-25T05:55:29.764Z,99.90
2018-06-25T05:57:57.957Z,99.90
2018-06-25T06:00:26.078Z,99.90
2018-06-25T06:02:54.198Z,99.90
2018-06-25T06:05:22.320Z,99.90
2018-06-25T06:07:50.449Z,99.90
2018-06-25T06:10:18.576Z,99.90
2018-06-25T06:12:46.762Z,99.90
2018-06-25T06:15:14.878Z,99.90
2018-06-25T06:17:43.006Z,99.90
2018-06-25T06:20:11.133Z,99.90
2018-06-25T06:22:39.299Z,99.90
2018-06-25T06:25:07.511Z,99.90
2018-06-25T06:27:35.654Z,99.90
2018-06-25T06:30:03.822Z,99.90
2018-06-25T06:32:31.954Z,99.90
2018-06-25T06:35:00.069Z,99.90
2018-06-25T06:37:28.219Z,99.90
2018-06-25T06:39:56.366Z,99.90
2018-06-25T06:42:24.730Z,99.90
2018-06-25T06:44:52.852Z,99.90
2018-06-25T06:47:20.950Z,99.90
2018-06-25T06:49:49.071Z,99.90
2018-06-25T06:52:17.186Z,99.90
2018-06-25T06:54:45.354Z,99.90
2018-06-25T06:57:13.447Z,99.90
2018-06-25T06:59:41.598Z,99.90
2018-06-25T07:02:09.725Z,99.90
2018-06-25T07:04:37.873Z,99.90
2018-06-25T07:07:05.988Z,99.90
2018-06-25T07:09:34.122Z,99.90
2018-06-25T07:12:02.247Z,99.90
2018-06-25T07:14:30.382Z,99.90
2018-06-25T07:16:58.515Z,99.90
2018-06-25T07:19:26.638Z,99.90
2018-06-25T07:21:54.753Z,99.90
2018-06-25T07:24:22.889Z,99.90
2018-06-25T07:26:51.006Z,99.90
2018-06-25T07:29:19.133Z,99.90
2018-06-25T07:31:48.194Z,99.90
2018-06-25T07:34:16.327Z,99.90
2018-06-25T07:36:44.494Z,99.90
2018-06-25T07:39:12.615Z,99.90
2018-06-25T07:41:40.738Z,99.90
2018-06-25T07:44:08.866Z,99.90
2018-06-25T07:46:37.003Z,99.90
2018-06-25T07:49:05.181Z,99.90
2018-06-25T07:51:33.307Z,99.90
2018-06-25T07:54:01.688Z,99.90
2018-06-25T07:56:29.843Z,99.90
2018-06-25T07:58:57.976Z,99.90
2018-06-25T08:01:26.095Z,99.90
2018-06-25T08:03:54.231Z,99.90
2018-06-25T08:06:22.373Z,99.90
2018-06-25T08:08:50.529Z,99.90
2018-06-25T08:11:18.662Z,99.90
2018-06-25T08:13:46.815Z,99.90
2018-06-25T08:16:14.954Z,99.90
2018-06-25T08:18:43.063Z,99.90
2018-06-25T08:21:11.209Z,99.90
2018-06-25T08:23:39.541Z,99.90
2018-06-25T08:26:07.682Z,99.90
2018-06-25T08:28:35.802Z,99.90
2018-06-25T08:31:03.937Z,99.90
2018-06-25T08:33:32.072Z,99.90
2018-06-25T08:36:00.192Z,99.90
2018-06-25T08:38:28.320Z,99.90
2018-06-25T08:40:56.458Z,99.90
2018-06-25T08:43:24.604Z,99.90
2018-06-25T08:45:52.812Z,99.90
2018-06-25T08:48:20.893Z,99.90
2018-06-25T08:50:49.038Z,99.90
2018-06-25T08:53:17.175Z,99.90
2018-06-25T08:55:45.314Z,99.90
2018-06-25T08:58:13.430Z,99.90
2018-06-25T09:00:41.551Z,99.90
2018-06-25T09:03:09.738Z,99.90
2018-06-25T09:05:37.806Z,99.90
2018-06-25T09:08:05.930Z,99.90
2018-06-25T09:10:34.078Z,99.90
2018-06-25T09:13:02.207Z,99.90
2018-06-25T09:15:30.402Z,99.90
2018-06-25T09:17:58.539Z,99.90
2018-06-25T09:20:26.703Z,99.90
2018-06-25T09:22:54.871Z,99.90
2018-06-25T09:25:22.997Z,99.90
2018-06-25T09:27:51.152Z,99.90
2018-06-25T09:30:20.136Z,99.90
2018-06-25T09:32:48.289Z,99.90
2018-06-25T09:35:16.463Z,99.90
2018-06-25T09:37:44.549Z,99.90
2018-06-25T09:40:12.746Z,99.90
2018-06-25T09:42:40.892Z,99.90
2018-06-25T09:45:10.126Z,99.90
2018-06-25T09:47:38.251Z,99.90
2018-06-25T09:50:06.371Z,99.90
2018-06-25T09:52:34.499Z,99.90
2018-06-25T09:55:02.721Z,99.90
2018-06-25T09:57:30.831Z,99.90
2018-06-25T09:59:59.019Z,99.90
2018-06-25T10:02:27.134Z,99.90
2018-06-25T10:04:55.247Z,99.90
2018-06-25T10:07:23.570Z,99.90
2018-06-25T10:09:51.698Z,99.90
2018-06-25T10:12:19.821Z,99.90
2018-06-25T10:14:48.006Z,99.90
2018-06-25T10:17:16.147Z,99.90
2018-06-25T10:19:44.267Z,99.90
2018-06-25T10:22:12.420Z,99.90
2018-06-25T10:24:40.588Z,99.90
2018-06-25T10:27:08.711Z,99.90
2018-06-25T10:29:36.834Z,99.90
2018-06-25T10:32:04.991Z,99.90
2018-06-25T10:34:33.129Z,99.90
2018-06-25T10:37:01.358Z,99.90
2018-06-25T10:39:29.478Z,99.90
2018-06-25T10:41:57.620Z,99.90
2018-06-25T10:44:25.727Z,99.90
2018-06-25T10:46:53.866Z,99.90
2018-06-25T10:49:21.999Z,99.90
2018-06-25T10:51:50.122Z,99.90
2018-06-25T10:54:18.265Z,99.90
2018-06-25T10:56:46.408Z,99.90
2018-06-25T10:59:14.539Z,99.90
2018-06-25T11:01:42.663Z,99.90
2018-06-25T11:04:10.796Z,99.90
2018-06-25T11:06:38.906Z,99.90
2018-06-25T11:09:08.494Z,99.90
2018-06-25T11:11:36.601Z,99.90
2018-06-25T11:14:04.782Z,99.90
2018-06-25T11:16:32.915Z,99.90
2018-06-25T11:19:01.058Z,99.90
2018-06-25T11:21:29.187Z,99.90
2018-06-25T11:23:57.322Z,99.90
2018-06-25T11:26:25.458Z,99.90
2018-06-25T11:28:53.590Z,99.90
2018-06-25T11:31:22.202Z,99.90
2018-06-25T11:33:50.342Z,99.90
2018-06-25T11:36:18.546Z,99.90
2018-06-25T11:38:46.702Z,99.90
2018-06-25T11:41:14.811Z,99.90
2018-06-25T11:43:42.942Z,99.90
2018-06-25T11:46:11.078Z,99.90
2018-06-25T11:48:39.213Z,99.90
2018-06-25T11:51:07.337Z,99.90
2018-06-25T11:53:35.460Z,99.90
2018-06-25T11:56:03.587Z,99.90
2018-06-25T11:58:31.721Z,99.90
2018-06-25T12:00:59.858Z,99.90
2018-06-25T12:03:28.181Z,99.90
2018-06-25T12:05:56.315Z,99.90
2018-06-25T12:08:24.430Z,99.90
2018-06-25T12:10:52.572Z,99.90
2018-06-25T12:13:20.682Z,99.90
2018-06-25T12:15:48.846Z,99.90
2018-06-25T12:18:17.092Z,99.90
2018-06-25T12:20:45.216Z,99.90
2018-06-25T12:23:13.348Z,99.90
2018-06-25T12:25:41.532Z,99.90
2018-06-25T12:28:09.722Z,99.90
2018-06-25T12:30:37.863Z,99.90
2018-06-25T12:33:06.298Z,99.90
2018-06-25T12:35:34.515Z,99.90
2018-06-25T12:38:02.770Z,99.90
2018-06-25T12:40:30.814Z,99.90
2018-06-25T12:42:58.939Z,99.90
2018-06-25T12:45:27.094Z,99.90
2018-06-25T12:47:55.271Z,99.90
2018-06-25T12:50:23.421Z,99.90
2018-06-25T12:52:51.568Z,99.90
2018-06-25T12:55:19.738Z,99.90
2018-06-25T12:57:47.867Z,99.90
2018-06-25T13:00:16.142Z,99.90
2018-06-25T13:02:44.278Z,99.90
2018-06-25T13:05:12.448Z,99.90
2018-06-25T13:07:40.586Z,99.90
2018-06-25T13:10:08.726Z,99.90
2018-06-25T13:12:36.845Z,99.90
2018-06-25T13:15:05.001Z,99.90
2018-06-25T13:17:33.139Z,99.90
2018-06-25T13:20:01.275Z,99.90
2018-06-25T13:22:29.411Z,98.40
2018-06-25T13:24:57.545Z,98.90
2018-06-25T13:27:25.711Z,99.10
2018-06-25T13:29:53.845Z,98.80
2018-06-25T13:32:21.965Z,98.10
2018-06-25T13:34:50.459Z,99.00
2018-06-25T13:37:18.610Z,99.90
2018-06-25T13:39:46.722Z,99.90
2018-06-25T13:42:14.854Z,99.90
2018-06-25T13:44:43.006Z,99.90
2018-06-25T13:47:11.135Z,99.90
2018-06-25T13:49:39.327Z,99.90
2018-06-25T13:52:07.463Z,99.90
2018-06-25T13:54:35.657Z,99.90
2018-06-25T13:57:03.707Z,98.90
2018-06-25T13:59:31.823Z,99.70
2018-06-25T14:02:00.012Z,97.60
2018-06-25T14:04:28.132Z,99.40
2018-06-25T14:06:56.308Z,98.10
2018-06-25T14:09:24.545Z,97.90
2018-06-25T14:11:52.683Z,99.60
2018-06-25T14:14:20.858Z,99.90
2018-06-25T14:16:49.154Z,99.90
2018-06-25T14:19:17.150Z,99.90
2018-06-25T14:21:45.343Z,99.90
2018-06-25T14:24:18.823Z,99.90
2018-06-25T14:26:46.975Z,99.90
2018-06-25T14:29:20.533Z,99.90
2018-06-25T14:31:48.655Z,99.90
2018-06-25T14:34:23.847Z,99.90
2018-06-25T14:36:52.188Z,99.90
2018-06-25T14:39:20.367Z,99.90
2018-06-25T14:41:48.502Z,99.90
2018-06-25T14:44:16.643Z,99.90
2018-06-25T14:46:44.782Z,99.90
2018-06-25T14:49:12.925Z,99.90
2018-06-25T14:51:41.058Z,99.90
2018-06-25T14:54:09.191Z,99.90
2018-06-25T14:56:37.313Z,99.90
2018-06-25T14:59:05.551Z,99.90
2018-06-25T15:01:33.775Z,99.90
2018-06-25T15:04:01.907Z,99.90
2018-06-25T15:06:30.022Z,99.90
2018-06-25T15:08:58.185Z,99.90
2018-06-25T15:11:26.616Z,99.90
2018-06-25T15:13:54.742Z,99.90
2018-06-25T15:16:22.918Z,99.90
2018-06-25T15:18:51.046Z,99.90
2018-06-25T15:21:19.174Z,99.90
2018-06-25T15:23:47.307Z,99.90
2018-06-25T15:26:15.431Z,99.90
2018-06-25T15:28:43.542Z,99.90
2018-06-25T15:31:11.704Z,99.90
2018-06-25T15:33:39.820Z,99.90
2018-06-25T15:36:07.945Z,99.90
2018-06-25T15:38:36.099Z,99.90
2018-06-25T15:41:04.232Z,99.90
2018-06-25T15:43:32.398Z,99.90
2018-06-25T15:46:00.534Z,99.90
2018-06-25T15:48:28.737Z,99.90
2018-06-25T15:50:56.915Z,99.90
2018-06-25T15:53:25.103Z,99.90
2018-06-25T15:55:53.225Z,99.90
2018-06-25T15:58:21.363Z,99.90
2018-06-25T16:00:49.547Z,99.90
2018-06-25T16:03:17.691Z,99.40
2018-06-25T16:05:45.822Z,99.60
2018-06-25T16:08:13.970Z,99.90
2018-06-25T16:10:42.101Z,99.90
2018-06-25T16:13:10.238Z,99.90
2018-06-25T16:15:38.466Z,99.90
2018-06-25T16:18:06.622Z,99.90
2018-06-25T16:20:34.783Z,99.90
2018-06-25T16:23:02.952Z,99.90
2018-06-25T16:25:31.078Z,99.90
2018-06-25T16:27:59.211Z,99.90
2018-06-25T16:30:27.326Z,99.90
2018-06-25T16:32:55.454Z,99.90
2018-06-25T16:35:23.601Z,99.40
2018-06-25T16:37:51.747Z,99.10
2018-06-25T16:40:19.888Z,98.80
2018-06-25T16:42:48.023Z,99.20
2018-06-25T16:45:16.151Z,99.90
2018-06-25T16:47:44.319Z,99.90
2018-06-25T16:50:12.511Z,99.90
2018-06-25T16:52:40.667Z,99.90
2018-06-25T16:55:08.842Z,99.90
2018-06-25T16:57:36.974Z,99.90
2018-06-25T17:00:05.798Z,99.90
2018-06-25T17:02:33.981Z,99.90
2018-06-25T17:05:02.163Z,99.90
2018-06-25T17:07:30.315Z,99.90
2018-06-25T17:09:58.514Z,99.90
2018-06-25T17:12:26.634Z,99.30
2018-06-25T17:14:54.758Z,99.30
2018-06-25T17:17:23.119Z,99.20
2018-06-25T17:19:51.254Z,99.10
2018-06-25T17:22:19.377Z,97.90
2018-06-25T17:24:47.506Z,97.90
2018-06-25T17:27:16.426Z,97.90
2018-06-25T17:29:44.553Z,97.90
2018-06-25T17:32:12.691Z,99.90
2018-06-25T17:34:40.833Z,99.80
2018-06-25T17:37:09.012Z,99.90
2018-06-25T17:39:37.182Z,99.90
2018-06-25T17:42:05.345Z,99.90
2018-06-25T17:44:33.470Z,99.90
2018-06-25T17:49:29.593Z,99.90
2018-06-25T17:51:57.754Z,99.90
2018-06-25T17:54:25.894Z,99.90
2018-06-25T17:56:54.078Z,99.90
2018-06-25T17:59:22.282Z,99.90
2018-06-25T18:01:50.451Z,99.20
2018-06-25T18:04:18.577Z,98.80
2018-06-25T18:06:46.808Z,98.80
2018-06-25T18:09:14.939Z,98.80
2018-06-25T18:11:43.059Z,98.90
2018-06-25T18:14:11.181Z,99.30
2018-06-25T18:16:39.354Z,99.10
2018-06-25T18:19:07.472Z,98.90
2018-06-25T18:21:35.636Z,99.10
2018-06-25T18:24:03.807Z,99.80
2018-06-25T18:26:31.948Z,99.70
2018-06-25T18:29:00.080Z,99.70
2018-06-25T18:31:28.387Z,99.90
2018-06-25T18:33:56.499Z,99.90
2018-06-25T18:36:24.739Z,99.90
2018-06-25T18:38:53.130Z,99.90
2018-06-25T18:41:21.251Z,99.90
2018-06-25T18:43:49.359Z,99.90
2018-06-25T18:46:17.499Z,99.90
2018-06-25T18:48:45.649Z,99.90
2018-06-25T18:51:13.974Z,99.90
2018-06-25T18:53:42.174Z,99.90
2018-06-25T18:56:10.288Z,99.90
2018-06-25T18:58:38.475Z,99.90
2018-06-25T19:01:06.590Z,99.90
2018-06-25T19:03:34.727Z,99.90
2018-06-25T19:06:02.847Z,99.90
2018-06-25T19:08:30.975Z,99.90
2018-06-25T19:13:27.026Z,99.90
2018-06-25T19:15:55.154Z,99.90
2018-06-25T19:18:23.302Z,99.90
2018-06-25T19:20:51.466Z,99.90
2018-06-25T19:23:19.595Z,99.90
2018-06-25T19:25:47.726Z,99.90
2018-06-25T19:28:15.886Z,99.90
2018-06-25T19:30:44.039Z,99.90
2018-06-25T19:33:12.174Z,99.90
2018-06-25T19:35:40.298Z,99.90
2018-06-25T19:38:08.433Z,99.90
2018-06-25T19:40:36.608Z,99.90
2018-06-25T19:43:04.795Z,99.90
2018-06-25T19:45:32.923Z,99.90
2018-06-25T19:48:01.059Z,99.90
2018-06-25T19:50:29.312Z,99.90
2018-06-25T19:52:57.443Z,99.90
2018-06-25T19:55:25.578Z,99.90
2018-06-25T19:57:53.728Z,99.90
2018-06-25T20:00:21.893Z,99.90
2018-06-25T20:02:50.149Z,99.90
2018-06-25T20:05:18.235Z,99.90
2018-06-25T20:07:46.375Z,99.90
2018-06-25T20:10:14.530Z,99.90
2018-06-25T20:12:42.676Z,99.90
2018-06-25T20:15:10.871Z,99.90
2018-06-25T20:17:38.959Z,99.90
2018-06-25T20:20:07.215Z,99.90
2018-06-25T20:22:35.348Z,99.90
2018-06-25T20:25:03.524Z,99.90
2018-06-25T20:27:31.662Z,99.90
2018-06-25T20:29:59.791Z,99.90
2018-06-25T20:32:27.923Z,99.90
2018-06-25T20:34:56.063Z,99.90
2018-06-25T20:37:24.199Z,99.90
2018-06-25T20:39:52.418Z,99.90
2018-06-25T20:42:20.638Z,99.90
2018-06-25T20:44:48.773Z,99.90
2018-06-25T20:47:16.894Z,99.90
2018-06-25T20:49:45.054Z,99.90
2018-06-25T20:52:13.177Z,99.90
2018-06-25T20:54:41.303Z,99.90
2018-06-25T20:57:09.431Z,99.90
2018-06-25T20:59:37.558Z,99.90
2018-06-25T21:02:05.685Z,99.90
2018-06-25T21:04:34.587Z,99.90
2018-06-25T21:07:02.766Z,99.90
2018-06-25T21:09:31.008Z,99.90
2018-06-25T21:11:59.122Z,99.90
2018-06-25T21:14:27.261Z,99.90
2018-06-25T21:16:55.464Z,99.90
2018-06-25T21:19:23.546Z,99.90
2018-06-25T21:21:51.674Z,99.90
2018-06-25T21:24:19.847Z,99.90
2018-06-25T21:26:48.566Z,99.90
2018-06-25T21:29:16.727Z,99.90
2018-06-25T21:31:44.880Z,99.90
2018-06-25T21:34:13.019Z,99.90
2018-06-25T21:36:41.142Z,99.90
2018-06-25T21:39:09.503Z,99.90
2018-06-25T21:41:37.626Z,99.90
2018-06-25T21:44:05.799Z,99.90
2018-06-25T21:46:33.925Z,99.90
2018-06-25T21:49:02.038Z,99.90
2018-06-25T21:51:30.201Z,99.90
2018-06-25T21:53:58.371Z,99.90
2018-06-25T21:56:26.516Z,99.90
2018-06-25T21:58:54.630Z,99.90
2018-06-25T22:01:22.767Z,99.90
2018-06-25T22:03:50.954Z,99.90
2018-06-25T22:06:19.066Z,99.90
2018-06-25T22:08:47.197Z,99.90
2018-06-25T22:11:15.336Z,99.90
2018-06-25T22:13:43.459Z,99.90
2018-06-25T22:16:11.582Z,99.90
2018-06-25T22:18:39.723Z,99.90
2018-06-25T22:21:07.866Z,99.90
2018-06-25T22:23:35.993Z,99.90
2018-06-25T22:26:04.134Z,99.90
2018-06-25T22:28:32.254Z,99.90
2018-06-25T22:31:00.453Z,99.90
2018-06-25T22:33:28.582Z,99.90
2018-06-25T22:35:56.721Z,99.90
2018-06-25T22:38:24.852Z,99.90
2018-06-25T22:40:52.975Z,99.90
2018-06-25T22:43:21.115Z,99.90
2018-06-25T22:45:49.255Z,99.90
2018-06-25T22:48:17.396Z,99.90
2018-06-25T22:50:45.535Z,99.90
2018-06-25T22:53:13.662Z,99.90
2018-06-25T22:55:41.808Z,99.90
2018-06-25T22:58:09.943Z,99.90
2018-06-25T23:00:38.186Z,99.90
2018-06-25T23:03:06.593Z,99.90
2018-06-25T23:05:34.730Z,99.90
2018-06-25T23:08:02.902Z,99.90
2018-06-25T23:10:31.016Z,99.90
2018-06-25T23:12:59.152Z,99.90
2018-06-25T23:15:27.277Z,99.90
2018-06-25T23:17:55.398Z,99.90
2018-06-25T23:20:23.526Z,99.90
2018-06-25T23:22:55.221Z,99.90
2018-06-25T23:25:23.678Z,99.90
2018-06-25T23:27:51.886Z,99.90
2018-06-25T23:30:20.429Z,99.90
2018-06-25T23:32:48.646Z,99.90
2018-06-25T23:35:16.988Z,99.90
2018-06-25T23:37:45.149Z,99.90
2018-06-25T23:40:13.270Z,99.90
2018-06-25T23:45:09.339Z,99.90
2018-06-25T23:47:37.455Z,99.90
2018-06-25T23:50:05.855Z,99.90
2018-06-25T23:52:33.991Z,99.90
2018-06-25T23:55:02.200Z,99.90
2018-06-25T23:57:30.326Z,99.90
2018-06-25T23:59:58.515Z,99.90
